sensor_id;sensor_type;location;lat;lon;timestamp;P1;durP1;ratioP1;P2;durP2;ratioP2
74632;SDS011;63139;52.018;8.552;2024-02-14T00:01:02;6.57;;;3.72;;
74632;SDS011;63139;52.018;8.552;2024-02-14T00:03:30;4.97;;;3.30;;
74632;SDS011;63139;52.018;8.552;2024-02-14T00:05:58;4.93;;;3.35;;
74632;SDS011;63139;52.018;8.552;2024-02-14T00:08:26;3.88;;;3.20;;
74632;SDS011;63139;52.018;8.552;2024-02-14T00:10:53;8.35;;;3.65;;
74632;SDS011;63139;52.018;8.552;2024-02-14T00:13:21;4.97;;;3.40;;
74632;SDS011;63139;52.018;8.552;2024-02-14T00:15:49;5.78;;;3.45;;
74632;SDS011;63139;52.018;8.552;2024-02-14T00:18:19;7.95;;;3.60;;
74632;SDS011;63139;52.018;8.552;2024-02-14T00:20:49;4.32;;;3.05;;
74632;SDS011;63139;52.018;8.552;2024-02-14T00:23:17;5.72;;;3.20;;
74632;SDS011;63139;52.018;8.552;2024-02-14T00:25:45;7.13;;;3.70;;
74632;SDS011;63139;52.018;8.552;2024-02-14T00:28:13;4.75;;;3.42;;
74632;SDS011;63139;52.018;8.552;2024-02-14T00:30:41;5.00;;;3.38;;
74632;SDS011;63139;52.018;8.552;2024-02-14T00:33:09;5.97;;;3.08;;
74632;SDS011;63139;52.018;8.552;2024-02-14T00:35:38;6.45;;;3.10;;
74632;SDS011;63139;52.018;8.552;2024-02-14T00:38:06;4.78;;;2.97;;
74632;SDS011;63139;52.018;8.552;2024-02-14T00:40:34;4.00;;;2.85;;
74632;SDS011;63139;52.018;8.552;2024-02-14T00:43:02;4.50;;;3.20;;
74632;SDS011;63139;52.018;8.552;2024-02-14T00:45:31;5.13;;;3.53;;
74632;SDS011;63139;52.018;8.552;2024-02-14T00:47:58;4.35;;;3.10;;
74632;SDS011;63139;52.018;8.552;2024-02-14T00:50:27;5.03;;;2.80;;
74632;SDS011;63139;52.018;8.552;2024-02-14T00:52:56;7.13;;;3.50;;
74632;SDS011;63139;52.018;8.552;2024-02-14T00:55:24;7.75;;;3.30;;
74632;SDS011;63139;52.018;8.552;2024-02-14T00:57:52;4.53;;;3.17;;
74632;SDS011;63139;52.018;8.552;2024-02-14T01:00:20;5.53;;;2.70;;
74632;SDS011;63139;52.018;8.552;2024-02-14T01:02:49;6.65;;;3.00;;
74632;SDS011;63139;52.018;8.552;2024-02-14T01:05:35;4.78;;;3.10;;
74632;SDS011;63139;52.018;8.552;2024-02-14T01:08:05;6.78;;;3.05;;
74632;SDS011;63139;52.018;8.552;2024-02-14T01:10:33;5.65;;;3.30;;
74632;SDS011;63139;52.018;8.552;2024-02-14T01:13:01;4.22;;;2.90;;
74632;SDS011;63139;52.018;8.552;2024-02-14T01:15:29;6.60;;;3.30;;
74632;SDS011;63139;52.018;8.552;2024-02-14T01:17:58;5.35;;;3.10;;
74632;SDS011;63139;52.018;8.552;2024-02-14T01:20:26;6.70;;;3.15;;
74632;SDS011;63139;52.018;8.552;2024-02-14T01:22:54;6.45;;;2.95;;
74632;SDS011;63139;52.018;8.552;2024-02-14T01:25:23;5.60;;;3.30;;
74632;SDS011;63139;52.018;8.552;2024-02-14T01:27:51;7.32;;;2.80;;
74632;SDS011;63139;52.018;8.552;2024-02-14T01:30:19;5.18;;;2.65;;
74632;SDS011;63139;52.018;8.552;2024-02-14T01:32:47;4.68;;;3.05;;
74632;SDS011;63139;52.018;8.552;2024-02-14T01:35:15;6.47;;;3.25;;
74632;SDS011;63139;52.018;8.552;2024-02-14T01:37:43;5.97;;;3.30;;
74632;SDS011;63139;52.018;8.552;2024-02-14T01:40:12;5.40;;;2.90;;
74632;SDS011;63139;52.018;8.552;2024-02-14T01:42:41;3.60;;;2.90;;
74632;SDS011;63139;52.018;8.552;2024-02-14T01:45:09;4.25;;;2.72;;
74632;SDS011;63139;52.018;8.552;2024-02-14T01:47:38;4.07;;;2.60;;
74632;SDS011;63139;52.018;8.552;2024-02-14T01:50:08;7.95;;;2.80;;
74632;SDS011;63139;52.018;8.552;2024-02-14T01:52:37;4.45;;;2.90;;
74632;SDS011;63139;52.018;8.552;2024-02-14T01:55:07;5.80;;;2.63;;
74632;SDS011;63139;52.018;8.552;2024-02-14T01:57:36;5.88;;;3.05;;
74632;SDS011;63139;52.018;8.552;2024-02-14T02:00:07;4.72;;;3.10;;
74632;SDS011;63139;52.018;8.552;2024-02-14T02:02:39;6.03;;;3.30;;
74632;SDS011;63139;52.018;8.552;2024-02-14T02:05:12;4.75;;;3.00;;
74632;SDS011;63139;52.018;8.552;2024-02-14T02:07:42;4.85;;;2.72;;
74632;SDS011;63139;52.018;8.552;2024-02-14T02:10:12;5.25;;;2.88;;
74632;SDS011;63139;52.018;8.552;2024-02-14T02:12:40;5.47;;;2.85;;
74632;SDS011;63139;52.018;8.552;2024-02-14T02:15:09;3.80;;;2.83;;
74632;SDS011;63139;52.018;8.552;2024-02-14T02:17:40;4.20;;;2.65;;
74632;SDS011;63139;52.018;8.552;2024-02-14T02:20:12;4.55;;;2.80;;
74632;SDS011;63139;52.018;8.552;2024-02-14T02:22:43;5.75;;;2.70;;
74632;SDS011;63139;52.018;8.552;2024-02-14T02:25:13;3.78;;;2.50;;
74632;SDS011;63139;52.018;8.552;2024-02-14T02:27:41;4.28;;;2.55;;
74632;SDS011;63139;52.018;8.552;2024-02-14T02:30:10;5.35;;;2.70;;
74632;SDS011;63139;52.018;8.552;2024-02-14T02:32:40;5.30;;;2.75;;
74632;SDS011;63139;52.018;8.552;2024-02-14T02:35:09;5.00;;;3.33;;
74632;SDS011;63139;52.018;8.552;2024-02-14T02:37:37;6.03;;;3.13;;
74632;SDS011;63139;52.018;8.552;2024-02-14T02:40:08;5.60;;;2.63;;
74632;SDS011;63139;52.018;8.552;2024-02-14T02:42:37;4.18;;;2.70;;
74632;SDS011;63139;52.018;8.552;2024-02-14T02:45:05;3.00;;;2.38;;
74632;SDS011;63139;52.018;8.552;2024-02-14T02:47:34;4.32;;;2.50;;
74632;SDS011;63139;52.018;8.552;2024-02-14T02:50:02;3.30;;;2.42;;
74632;SDS011;63139;52.018;8.552;2024-02-14T02:52:32;5.55;;;2.88;;
74632;SDS011;63139;52.018;8.552;2024-02-14T02:55:00;4.60;;;2.30;;
74632;SDS011;63139;52.018;8.552;2024-02-14T02:57:30;2.92;;;2.15;;
74632;SDS011;63139;52.018;8.552;2024-02-14T02:59:58;4.78;;;2.20;;
74632;SDS011;63139;52.018;8.552;2024-02-14T03:02:26;4.07;;;2.22;;
74632;SDS011;63139;52.018;8.552;2024-02-14T03:04:54;3.28;;;2.35;;
74632;SDS011;63139;52.018;8.552;2024-02-14T03:07:22;4.18;;;2.55;;
74632;SDS011;63139;52.018;8.552;2024-02-14T03:09:50;4.25;;;2.33;;
74632;SDS011;63139;52.018;8.552;2024-02-14T03:12:18;4.25;;;2.40;;
74632;SDS011;63139;52.018;8.552;2024-02-14T03:14:48;3.10;;;2.00;;
74632;SDS011;63139;52.018;8.552;2024-02-14T03:17:16;4.43;;;2.20;;
74632;SDS011;63139;52.018;8.552;2024-02-14T03:19:44;3.22;;;2.00;;
74632;SDS011;63139;52.018;8.552;2024-02-14T03:22:12;3.25;;;2.08;;
74632;SDS011;63139;52.018;8.552;2024-02-14T03:24:40;3.13;;;2.40;;
74632;SDS011;63139;52.018;8.552;2024-02-14T03:27:10;2.35;;;1.90;;
74632;SDS011;63139;52.018;8.552;2024-02-14T03:29:38;5.05;;;2.20;;
74632;SDS011;63139;52.018;8.552;2024-02-14T03:32:08;2.40;;;2.10;;
74632;SDS011;63139;52.018;8.552;2024-02-14T03:34:36;3.80;;;2.20;;
74632;SDS011;63139;52.018;8.552;2024-02-14T03:37:04;3.92;;;1.98;;
74632;SDS011;63139;52.018;8.552;2024-02-14T03:39:33;3.85;;;1.92;;
74632;SDS011;63139;52.018;8.552;2024-02-14T03:42:02;3.63;;;1.75;;
74632;SDS011;63139;52.018;8.552;2024-02-14T03:44:34;3.72;;;2.00;;
74632;SDS011;63139;52.018;8.552;2024-02-14T03:47:04;3.38;;;2.00;;
74632;SDS011;63139;52.018;8.552;2024-02-14T03:49:33;3.90;;;2.00;;
74632;SDS011;63139;52.018;8.552;2024-02-14T03:52:01;2.35;;;1.80;;
74632;SDS011;63139;52.018;8.552;2024-02-14T03:54:35;2.28;;;1.83;;
74632;SDS011;63139;52.018;8.552;2024-02-14T03:57:03;3.38;;;2.00;;
74632;SDS011;63139;52.018;8.552;2024-02-14T03:59:37;3.58;;;1.88;;
74632;SDS011;63139;52.018;8.552;2024-02-14T04:02:06;4.07;;;2.10;;
74632;SDS011;63139;52.018;8.552;2024-02-14T04:04:38;5.07;;;2.03;;
74632;SDS011;63139;52.018;8.552;2024-02-14T04:07:08;4.47;;;2.10;;
74632;SDS011;63139;52.018;8.552;2024-02-14T04:09:36;2.83;;;1.80;;
74632;SDS011;63139;52.018;8.552;2024-02-14T04:12:05;5.57;;;2.10;;
74632;SDS011;63139;52.018;8.552;2024-02-14T04:14:33;3.55;;;2.00;;
74632;SDS011;63139;52.018;8.552;2024-02-14T04:17:01;2.33;;;1.77;;
74632;SDS011;63139;52.018;8.552;2024-02-14T04:19:29;3.85;;;2.25;;
74632;SDS011;63139;52.018;8.552;2024-02-14T04:21:59;2.65;;;1.98;;
74632;SDS011;63139;52.018;8.552;2024-02-14T04:24:26;3.38;;;2.03;;
74632;SDS011;63139;52.018;8.552;2024-02-14T04:26:55;4.28;;;2.17;;
74632;SDS011;63139;52.018;8.552;2024-02-14T04:29:23;2.58;;;1.95;;
74632;SDS011;63139;52.018;8.552;2024-02-14T04:31:52;3.53;;;2.35;;
74632;SDS011;63139;52.018;8.552;2024-02-14T04:34:19;3.30;;;2.15;;
74632;SDS011;63139;52.018;8.552;2024-02-14T04:36:48;3.28;;;2.30;;
74632;SDS011;63139;52.018;8.552;2024-02-14T04:39:17;3.78;;;2.60;;
74632;SDS011;63139;52.018;8.552;2024-02-14T04:41:45;5.38;;;2.90;;
74632;SDS011;63139;52.018;8.552;2024-02-14T04:44:26;3.88;;;2.30;;
74632;SDS011;63139;52.018;8.552;2024-02-14T04:46:54;3.95;;;2.70;;
74632;SDS011;63139;52.018;8.552;2024-02-14T04:49:24;4.53;;;2.20;;
74632;SDS011;63139;52.018;8.552;2024-02-14T04:51:53;3.67;;;2.50;;
74632;SDS011;63139;52.018;8.552;2024-02-14T04:54:23;3.63;;;2.70;;
74632;SDS011;63139;52.018;8.552;2024-02-14T04:56:51;4.00;;;2.67;;
74632;SDS011;63139;52.018;8.552;2024-02-14T04:59:24;3.72;;;2.60;;
74632;SDS011;63139;52.018;8.552;2024-02-14T05:01:53;3.58;;;2.70;;
74632;SDS011;63139;52.018;8.552;2024-02-14T05:04:21;3.90;;;2.97;;
74632;SDS011;63139;52.018;8.552;2024-02-14T05:06:49;5.20;;;2.78;;
74632;SDS011;63139;52.018;8.552;2024-02-14T05:09:24;3.85;;;2.78;;
74632;SDS011;63139;52.018;8.552;2024-02-14T05:11:52;2.70;;;2.47;;
74632;SDS011;63139;52.018;8.552;2024-02-14T05:14:20;4.00;;;2.80;;
74632;SDS011;63139;52.018;8.552;2024-02-14T05:16:48;3.78;;;2.80;;
74632;SDS011;63139;52.018;8.552;2024-02-14T05:19:16;3.58;;;2.80;;
74632;SDS011;63139;52.018;8.552;2024-02-14T05:21:48;3.88;;;2.65;;
74632;SDS011;63139;52.018;8.552;2024-02-14T05:24:17;3.47;;;2.90;;
74632;SDS011;63139;52.018;8.552;2024-02-14T05:26:47;6.53;;;3.42;;
74632;SDS011;63139;52.018;8.552;2024-02-14T05:29:15;6.30;;;3.50;;
74632;SDS011;63139;52.018;8.552;2024-02-14T05:31:45;5.72;;;3.25;;
74632;SDS011;63139;52.018;8.552;2024-02-14T05:34:15;6.60;;;3.22;;
74632;SDS011;63139;52.018;8.552;2024-02-14T05:36:43;4.68;;;3.22;;
74632;SDS011;63139;52.018;8.552;2024-02-14T05:39:12;6.80;;;3.60;;
74632;SDS011;63139;52.018;8.552;2024-02-14T05:41:42;7.00;;;3.70;;
74632;SDS011;63139;52.018;8.552;2024-02-14T05:44:12;3.38;;;3.08;;
74632;SDS011;63139;52.018;8.552;2024-02-14T05:46:40;4.93;;;3.42;;
74632;SDS011;63139;52.018;8.552;2024-02-14T05:49:08;6.13;;;3.72;;
74632;SDS011;63139;52.018;8.552;2024-02-14T05:51:36;5.75;;;3.50;;
74632;SDS011;63139;52.018;8.552;2024-02-14T05:54:05;6.18;;;3.28;;
74632;SDS011;63139;52.018;8.552;2024-02-14T05:56:33;4.68;;;3.67;;
74632;SDS011;63139;52.018;8.552;2024-02-14T05:59:01;6.82;;;3.78;;
74632;SDS011;63139;52.018;8.552;2024-02-14T06:01:30;6.07;;;3.40;;
74632;SDS011;63139;52.018;8.552;2024-02-14T06:03:58;4.45;;;3.35;;
74632;SDS011;63139;52.018;8.552;2024-02-14T06:06:26;4.88;;;3.60;;
74632;SDS011;63139;52.018;8.552;2024-02-14T06:08:54;5.35;;;3.55;;
74632;SDS011;63139;52.018;8.552;2024-02-14T06:11:24;5.70;;;3.33;;
74632;SDS011;63139;52.018;8.552;2024-02-14T06:13:53;4.80;;;3.80;;
74632;SDS011;63139;52.018;8.552;2024-02-14T06:16:22;3.95;;;3.53;;
74632;SDS011;63139;52.018;8.552;2024-02-14T06:18:51;4.80;;;3.88;;
74632;SDS011;63139;52.018;8.552;2024-02-14T06:21:20;6.10;;;4.38;;
74632;SDS011;63139;52.018;8.552;2024-02-14T06:23:49;4.75;;;4.03;;
74632;SDS011;63139;52.018;8.552;2024-02-14T06:26:17;7.18;;;4.60;;
74632;SDS011;63139;52.018;8.552;2024-02-14T06:28:45;5.65;;;4.10;;
74632;SDS011;63139;52.018;8.552;2024-02-14T06:31:13;6.03;;;4.35;;
74632;SDS011;63139;52.018;8.552;2024-02-14T06:33:41;7.78;;;5.32;;
74632;SDS011;63139;52.018;8.552;2024-02-14T06:36:12;7.47;;;4.97;;
74632;SDS011;63139;52.018;8.552;2024-02-14T06:38:40;7.63;;;4.95;;
74632;SDS011;63139;52.018;8.552;2024-02-14T06:41:10;5.70;;;4.32;;
74632;SDS011;63139;52.018;8.552;2024-02-14T06:43:37;6.80;;;5.05;;
74632;SDS011;63139;52.018;8.552;2024-02-14T06:46:05;6.18;;;4.82;;
74632;SDS011;63139;52.018;8.552;2024-02-14T06:48:33;7.10;;;5.32;;
74632;SDS011;63139;52.018;8.552;2024-02-14T06:51:01;8.05;;;5.90;;
74632;SDS011;63139;52.018;8.552;2024-02-14T06:53:31;9.52;;;6.85;;
74632;SDS011;63139;52.018;8.552;2024-02-14T06:55:59;8.82;;;6.88;;
74632;SDS011;63139;52.018;8.552;2024-02-14T06:58:27;8.65;;;6.68;;
74632;SDS011;63139;52.018;8.552;2024-02-14T07:00:56;11.20;;;8.27;;
74632;SDS011;63139;52.018;8.552;2024-02-14T07:03:24;10.63;;;7.55;;
74632;SDS011;63139;52.018;8.552;2024-02-14T07:05:52;9.70;;;7.50;;
74632;SDS011;63139;52.018;8.552;2024-02-14T07:08:21;9.70;;;7.25;;
74632;SDS011;63139;52.018;8.552;2024-02-14T07:10:51;9.82;;;6.93;;
74632;SDS011;63139;52.018;8.552;2024-02-14T07:13:19;9.50;;;7.38;;
74632;SDS011;63139;52.018;8.552;2024-02-14T07:15:48;9.80;;;8.13;;
74632;SDS011;63139;52.018;8.552;2024-02-14T07:18:15;10.50;;;8.63;;
74632;SDS011;63139;52.018;8.552;2024-02-14T07:20:43;11.35;;;8.48;;
74632;SDS011;63139;52.018;8.552;2024-02-14T07:23:11;11.48;;;8.63;;
74632;SDS011;63139;52.018;8.552;2024-02-14T07:25:39;10.95;;;8.38;;
74632;SDS011;63139;52.018;8.552;2024-02-14T07:28:08;12.60;;;9.15;;
74632;SDS011;63139;52.018;8.552;2024-02-14T07:30:36;10.93;;;8.82;;
74632;SDS011;63139;52.018;8.552;2024-02-14T07:33:05;9.95;;;7.65;;
74632;SDS011;63139;52.018;8.552;2024-02-14T07:35:34;12.00;;;8.50;;
74632;SDS011;63139;52.018;8.552;2024-02-14T07:38:02;10.27;;;8.40;;
74632;SDS011;63139;52.018;8.552;2024-02-14T07:40:30;10.32;;;8.50;;
74632;SDS011;63139;52.018;8.552;2024-02-14T07:42:58;11.50;;;7.68;;
74632;SDS011;63139;52.018;8.552;2024-02-14T07:45:28;9.38;;;7.32;;
74632;SDS011;63139;52.018;8.552;2024-02-14T07:47:55;9.90;;;7.47;;
74632;SDS011;63139;52.018;8.552;2024-02-14T07:50:23;11.48;;;8.10;;
74632;SDS011;63139;52.018;8.552;2024-02-14T07:52:54;10.82;;;8.10;;
74632;SDS011;63139;52.018;8.552;2024-02-14T07:55:22;7.78;;;6.95;;
74632;SDS011;63139;52.018;8.552;2024-02-14T07:57:50;9.80;;;7.60;;
74632;SDS011;63139;52.018;8.552;2024-02-14T08:00:19;8.82;;;7.47;;
74632;SDS011;63139;52.018;8.552;2024-02-14T08:02:51;8.18;;;6.70;;
74632;SDS011;63139;52.018;8.552;2024-02-14T08:05:19;10.05;;;6.63;;
74632;SDS011;63139;52.018;8.552;2024-02-14T08:07:47;8.35;;;6.80;;
74632;SDS011;63139;52.018;8.552;2024-02-14T08:10:16;7.75;;;6.72;;
74632;SDS011;63139;52.018;8.552;2024-02-14T08:12:43;8.77;;;7.65;;
74632;SDS011;63139;52.018;8.552;2024-02-14T08:15:11;8.27;;;6.63;;
74632;SDS011;63139;52.018;8.552;2024-02-14T08:17:39;7.82;;;6.50;;
74632;SDS011;63139;52.018;8.552;2024-02-14T08:20:14;8.15;;;6.78;;
74632;SDS011;63139;52.018;8.552;2024-02-14T08:22:42;7.55;;;5.80;;
74632;SDS011;63139;52.018;8.552;2024-02-14T08:25:10;9.25;;;6.75;;
74632;SDS011;63139;52.018;8.552;2024-02-14T08:27:39;8.07;;;6.18;;
74632;SDS011;63139;52.018;8.552;2024-02-14T08:30:07;7.13;;;6.43;;
74632;SDS011;63139;52.018;8.552;2024-02-14T08:32:35;7.38;;;6.10;;
74632;SDS011;63139;52.018;8.552;2024-02-14T08:35:04;7.40;;;6.25;;
74632;SDS011;63139;52.018;8.552;2024-02-14T08:37:35;6.93;;;6.22;;
74632;SDS011;63139;52.018;8.552;2024-02-14T08:40:05;7.15;;;6.22;;
74632;SDS011;63139;52.018;8.552;2024-02-14T08:42:33;8.35;;;6.53;;
74632;SDS011;63139;52.018;8.552;2024-02-14T08:45:01;8.60;;;6.57;;
74632;SDS011;63139;52.018;8.552;2024-02-14T08:47:30;9.48;;;6.80;;
74632;SDS011;63139;52.018;8.552;2024-02-14T08:49:58;8.00;;;6.53;;
74632;SDS011;63139;52.018;8.552;2024-02-14T08:52:27;8.35;;;6.82;;
74632;SDS011;63139;52.018;8.552;2024-02-14T08:54:57;9.32;;;6.30;;
74632;SDS011;63139;52.018;8.552;2024-02-14T08:57:24;8.23;;;6.82;;
74632;SDS011;63139;52.018;8.552;2024-02-14T08:59:52;7.45;;;6.00;;
74632;SDS011;63139;52.018;8.552;2024-02-14T09:02:20;6.82;;;5.88;;
74632;SDS011;63139;52.018;8.552;2024-02-14T09:04:48;7.70;;;6.13;;
74632;SDS011;63139;52.018;8.552;2024-02-14T09:07:17;6.38;;;5.75;;
74632;SDS011;63139;52.018;8.552;2024-02-14T09:09:45;6.00;;;5.40;;
74632;SDS011;63139;52.018;8.552;2024-02-14T09:12:16;6.38;;;5.72;;
74632;SDS011;63139;52.018;8.552;2024-02-14T09:14:44;8.57;;;6.45;;
74632;SDS011;63139;52.018;8.552;2024-02-14T09:17:12;8.07;;;7.03;;
74632;SDS011;63139;52.018;8.552;2024-02-14T09:19:40;7.63;;;6.40;;
74632;SDS011;63139;52.018;8.552;2024-02-14T09:22:08;7.60;;;6.80;;
74632;SDS011;63139;52.018;8.552;2024-02-14T09:24:36;16.30;;;6.65;;
74632;SDS011;63139;52.018;8.552;2024-02-14T09:27:05;7.18;;;6.47;;
74632;SDS011;63139;52.018;8.552;2024-02-14T09:29:34;9.00;;;6.70;;
74632;SDS011;63139;52.018;8.552;2024-02-14T09:32:05;8.27;;;6.75;;
74632;SDS011;63139;52.018;8.552;2024-02-14T09:34:33;7.25;;;6.43;;
74632;SDS011;63139;52.018;8.552;2024-02-14T09:37:02;8.27;;;6.57;;
74632;SDS011;63139;52.018;8.552;2024-02-14T09:39:32;6.93;;;6.22;;
74632;SDS011;63139;52.018;8.552;2024-02-14T09:42:04;7.93;;;6.38;;
74632;SDS011;63139;52.018;8.552;2024-02-14T09:44:38;7.22;;;5.57;;
74632;SDS011;63139;52.018;8.552;2024-02-14T09:47:08;7.32;;;6.25;;
74632;SDS011;63139;52.018;8.552;2024-02-14T09:49:37;8.20;;;6.82;;
74632;SDS011;63139;52.018;8.552;2024-02-14T09:52:06;7.38;;;5.97;;
74632;SDS011;63139;52.018;8.552;2024-02-14T09:54:36;8.60;;;6.15;;
74632;SDS011;63139;52.018;8.552;2024-02-14T09:57:05;9.25;;;6.43;;
74632;SDS011;63139;52.018;8.552;2024-02-14T09:59:34;7.85;;;6.63;;
74632;SDS011;63139;52.018;8.552;2024-02-14T10:02:05;10.75;;;6.93;;
74632;SDS011;63139;52.018;8.552;2024-02-14T10:04:34;7.43;;;6.28;;
74632;SDS011;63139;52.018;8.552;2024-02-14T10:07:02;9.73;;;6.97;;
74632;SDS011;63139;52.018;8.552;2024-02-14T10:09:39;8.15;;;6.82;;
74632;SDS011;63139;52.018;8.552;2024-02-14T10:12:08;13.00;;;7.28;;
74632;SDS011;63139;52.018;8.552;2024-02-14T10:14:36;14.10;;;8.00;;
74632;SDS011;63139;52.018;8.552;2024-02-14T10:17:06;13.18;;;8.75;;
74632;SDS011;63139;52.018;8.552;2024-02-14T10:19:36;13.70;;;8.50;;
74632;SDS011;63139;52.018;8.552;2024-02-14T10:22:04;10.82;;;7.95;;
74632;SDS011;63139;52.018;8.552;2024-02-14T10:24:34;9.85;;;7.32;;
74632;SDS011;63139;52.018;8.552;2024-02-14T10:27:01;11.48;;;8.25;;
74632;SDS011;63139;52.018;8.552;2024-02-14T10:29:35;12.95;;;8.20;;
74632;SDS011;63139;52.018;8.552;2024-02-14T10:32:03;10.63;;;7.88;;
74632;SDS011;63139;52.018;8.552;2024-02-14T10:34:33;10.40;;;7.90;;
74632;SDS011;63139;52.018;8.552;2024-02-14T10:37:03;9.60;;;7.35;;
74632;SDS011;63139;52.018;8.552;2024-02-14T10:39:33;10.60;;;8.38;;
74632;SDS011;63139;52.018;8.552;2024-02-14T10:42:03;8.63;;;7.25;;
74632;SDS011;63139;52.018;8.552;2024-02-14T10:44:34;12.00;;;8.55;;
74632;SDS011;63139;52.018;8.552;2024-02-14T10:47:03;10.07;;;7.65;;
74632;SDS011;63139;52.018;8.552;2024-02-14T10:49:37;11.43;;;7.38;;
74632;SDS011;63139;52.018;8.552;2024-02-14T10:52:07;10.90;;;7.38;;
74632;SDS011;63139;52.018;8.552;2024-02-14T10:54:36;8.35;;;7.22;;
74632;SDS011;63139;52.018;8.552;2024-02-14T10:57:05;8.23;;;7.18;;
74632;SDS011;63139;52.018;8.552;2024-02-14T10:59:38;9.50;;;6.70;;
74632;SDS011;63139;52.018;8.552;2024-02-14T11:02:11;8.85;;;6.97;;
74632;SDS011;63139;52.018;8.552;2024-02-14T11:04:41;7.25;;;6.53;;
74632;SDS011;63139;52.018;8.552;2024-02-14T11:07:09;9.45;;;7.13;;
74632;SDS011;63139;52.018;8.552;2024-02-14T11:09:40;9.38;;;6.95;;
74632;SDS011;63139;52.018;8.552;2024-02-14T11:12:08;8.50;;;6.28;;
74632;SDS011;63139;52.018;8.552;2024-02-14T11:14:38;8.38;;;5.63;;
74632;SDS011;63139;52.018;8.552;2024-02-14T11:17:12;7.60;;;6.82;;
74632;SDS011;63139;52.018;8.552;2024-02-14T11:19:41;6.90;;;6.20;;
74632;SDS011;63139;52.018;8.552;2024-02-14T11:22:11;10.40;;;6.05;;
74632;SDS011;63139;52.018;8.552;2024-02-14T11:24:40;7.30;;;6.18;;
74632;SDS011;63139;52.018;8.552;2024-02-14T11:27:12;6.47;;;5.78;;
74632;SDS011;63139;52.018;8.552;2024-02-14T11:29:59;7.85;;;5.68;;
74632;SDS011;63139;52.018;8.552;2024-02-14T11:32:31;6.82;;;6.13;;
74632;SDS011;63139;52.018;8.552;2024-02-14T11:35:01;8.55;;;5.90;;
74632;SDS011;63139;52.018;8.552;2024-02-14T11:37:32;7.57;;;5.97;;
74632;SDS011;63139;52.018;8.552;2024-02-14T11:40:01;6.80;;;6.10;;
74632;SDS011;63139;52.018;8.552;2024-02-14T11:42:28;7.68;;;5.90;;
74632;SDS011;63139;52.018;8.552;2024-02-14T11:44:57;6.63;;;5.95;;
74632;SDS011;63139;52.018;8.552;2024-02-14T11:47:25;5.95;;;5.28;;
74632;SDS011;63139;52.018;8.552;2024-02-14T11:49:53;7.97;;;5.30;;
74632;SDS011;63139;52.018;8.552;2024-02-14T11:52:23;7.90;;;6.15;;
74632;SDS011;63139;52.018;8.552;2024-02-14T11:54:53;7.57;;;5.45;;
74632;SDS011;63139;52.018;8.552;2024-02-14T11:57:22;5.13;;;4.63;;
74632;SDS011;63139;52.018;8.552;2024-02-14T11:59:50;5.70;;;5.00;;
74632;SDS011;63139;52.018;8.552;2024-02-14T12:02:20;5.55;;;4.18;;
74632;SDS011;63139;52.018;8.552;2024-02-14T12:04:49;6.05;;;4.13;;
74632;SDS011;63139;52.018;8.552;2024-02-14T12:07:20;4.38;;;3.80;;
74632;SDS011;63139;52.018;8.552;2024-02-14T12:09:50;4.88;;;4.38;;
74632;SDS011;63139;52.018;8.552;2024-02-14T12:12:18;6.80;;;4.20;;
74632;SDS011;63139;52.018;8.552;2024-02-14T12:14:47;4.97;;;4.47;;
74632;SDS011;63139;52.018;8.552;2024-02-14T12:17:16;5.03;;;4.05;;
74632;SDS011;63139;52.018;8.552;2024-02-14T12:19:45;4.35;;;3.95;;
74632;SDS011;63139;52.018;8.552;2024-02-14T12:22:15;4.38;;;3.97;;
74632;SDS011;63139;52.018;8.552;2024-02-14T12:24:46;3.92;;;3.53;;
74632;SDS011;63139;52.018;8.552;2024-02-14T12:27:17;4.45;;;3.50;;
74632;SDS011;63139;52.018;8.552;2024-02-14T12:29:46;3.45;;;3.15;;
74632;SDS011;63139;52.018;8.552;2024-02-14T12:32:17;3.78;;;3.47;;
74632;SDS011;63139;52.018;8.552;2024-02-14T12:34:45;3.78;;;3.47;;
74632;SDS011;63139;52.018;8.552;2024-02-14T12:37:13;4.50;;;4.10;;
74632;SDS011;63139;52.018;8.552;2024-02-14T12:39:41;5.57;;;4.07;;
74632;SDS011;63139;52.018;8.552;2024-02-14T12:42:09;4.43;;;3.40;;
74632;SDS011;63139;52.018;8.552;2024-02-14T12:44:39;3.63;;;3.33;;
74632;SDS011;63139;52.018;8.552;2024-02-14T12:47:07;4.22;;;3.83;;
74632;SDS011;63139;52.018;8.552;2024-02-14T12:49:35;4.30;;;3.90;;
74632;SDS011;63139;52.018;8.552;2024-02-14T12:52:03;5.50;;;4.50;;
74632;SDS011;63139;52.018;8.552;2024-02-14T12:54:31;5.15;;;4.43;;
74632;SDS011;63139;52.018;8.552;2024-02-14T12:56:59;5.03;;;4.15;;
74632;SDS011;63139;52.018;8.552;2024-02-14T12:59:27;4.25;;;3.85;;
74632;SDS011;63139;52.018;8.552;2024-02-14T13:01:57;5.10;;;4.60;;
74632;SDS011;63139;52.018;8.552;2024-02-14T13:04:24;4.68;;;4.28;;
74632;SDS011;63139;52.018;8.552;2024-02-14T13:06:52;5.72;;;4.22;;
74632;SDS011;63139;52.018;8.552;2024-02-14T13:09:21;4.85;;;4.45;;
74632;SDS011;63139;52.018;8.552;2024-02-14T13:11:49;4.65;;;4.25;;
74632;SDS011;63139;52.018;8.552;2024-02-14T13:14:17;4.78;;;4.30;;
74632;SDS011;63139;52.018;8.552;2024-02-14T13:16:45;4.72;;;4.28;;
74632;SDS011;63139;52.018;8.552;2024-02-14T13:19:14;4.85;;;4.45;;
74632;SDS011;63139;52.018;8.552;2024-02-14T13:21:45;5.93;;;4.10;;
74632;SDS011;63139;52.018;8.552;2024-02-14T13:24:14;5.60;;;4.20;;
74632;SDS011;63139;52.018;8.552;2024-02-14T13:26:43;4.63;;;4.22;;
74632;SDS011;63139;52.018;8.552;2024-02-14T13:29:11;4.38;;;3.90;;
74632;SDS011;63139;52.018;8.552;2024-02-14T13:31:39;5.60;;;4.80;;
74632;SDS011;63139;52.018;8.552;2024-02-14T13:34:08;5.72;;;4.28;;
74632;SDS011;63139;52.018;8.552;2024-02-14T13:36:38;6.20;;;4.55;;
74632;SDS011;63139;52.018;8.552;2024-02-14T13:39:05;4.35;;;3.90;;
74632;SDS011;63139;52.018;8.552;2024-02-14T13:41:35;6.03;;;3.90;;
74632;SDS011;63139;52.018;8.552;2024-02-14T13:44:04;6.25;;;4.30;;
74632;SDS011;63139;52.018;8.552;2024-02-14T13:46:34;5.78;;;3.83;;
74632;SDS011;63139;52.018;8.552;2024-02-14T13:49:02;6.90;;;4.15;;
74632;SDS011;63139;52.018;8.552;2024-02-14T13:51:31;5.30;;;4.78;;
74632;SDS011;63139;52.018;8.552;2024-02-14T13:54:00;5.60;;;4.00;;
74632;SDS011;63139;52.018;8.552;2024-02-14T13:56:28;5.63;;;3.70;;
74632;SDS011;63139;52.018;8.552;2024-02-14T13:58:56;5.82;;;4.03;;
74632;SDS011;63139;52.018;8.552;2024-02-14T14:01:24;4.90;;;4.15;;
74632;SDS011;63139;52.018;8.552;2024-02-14T14:03:52;5.57;;;4.15;;
74632;SDS011;63139;52.018;8.552;2024-02-14T14:06:22;6.30;;;4.65;;
74632;SDS011;63139;52.018;8.552;2024-02-14T14:08:50;4.95;;;4.28;;
74632;SDS011;63139;52.018;8.552;2024-02-14T14:11:19;6.65;;;4.18;;
74632;SDS011;63139;52.018;8.552;2024-02-14T14:13:48;7.38;;;5.00;;
74632;SDS011;63139;52.018;8.552;2024-02-14T14:16:16;6.15;;;4.28;;
74632;SDS011;63139;52.018;8.552;2024-02-14T14:18:43;6.57;;;4.80;;
74632;SDS011;63139;52.018;8.552;2024-02-14T14:21:12;5.75;;;4.68;;
74632;SDS011;63139;52.018;8.552;2024-02-14T14:23:40;5.22;;;4.50;;
74632;SDS011;63139;52.018;8.552;2024-02-14T14:26:08;7.13;;;5.03;;
74632;SDS011;63139;52.018;8.552;2024-02-14T14:28:37;6.70;;;5.22;;
74632;SDS011;63139;52.018;8.552;2024-02-14T14:31:05;6.55;;;5.60;;
74632;SDS011;63139;52.018;8.552;2024-02-14T14:33:38;6.95;;;5.50;;
74632;SDS011;63139;52.018;8.552;2024-02-14T14:36:06;6.18;;;4.88;;
74632;SDS011;63139;52.018;8.552;2024-02-14T14:38:35;6.00;;;4.70;;
74632;SDS011;63139;52.018;8.552;2024-02-14T14:41:04;5.10;;;4.60;;
74632;SDS011;63139;52.018;8.552;2024-02-14T14:43:32;6.82;;;5.18;;
74632;SDS011;63139;52.018;8.552;2024-02-14T14:46:01;6.43;;;4.47;;
74632;SDS011;63139;52.018;8.552;2024-02-14T14:48:29;4.88;;;4.38;;
74632;SDS011;63139;52.018;8.552;2024-02-14T14:50:58;4.93;;;3.78;;
74632;SDS011;63139;52.018;8.552;2024-02-14T14:53:26;7.15;;;3.90;;
74632;SDS011;63139;52.018;8.552;2024-02-14T14:55:54;7.07;;;3.58;;